Time;durP1;ratioP1;P1;durP2;ratioP2;P2;SDS_P1;SDS_P2;PMS_P1;PMS_P2;Temp;Humidity;BMP_temperature;BMP_pressure;BME280_temperature;BME280_humidity;BME280_pressure;Samples;Min_cycle;Max_cycle;Signal;HPM_P1;HPM_P2
2022/05/19 00:02:07;;;;;;;13.37;9.47;;;19.60;1.00;;;;;;5027497;28;20434;-56
2022/05/19 00:04:33;;;;;;;15.30;11.20;;;19.60;1.00;;;;;;5030880;28;20464;-56
2022/05/19 00:06:58;;;;;;;10.67;9.37;;;19.50;1.00;;;;;;5028213;28;20453;-57
2022/05/19 00:09:24;;;;;;;17.40;11.20;;;19.40;1.00;;;;;;5032624;28;20439;-57
2022/05/19 00:11:51;;;;;;;13.77;11.60;;;19.40;1.00;;;;;;5036343;28;20253;-57
2022/05/19 00:14:16;;;;;;;11.67;10.17;;;19.30;1.00;;;;;;5032370;28;20211;-56
2022/05/19 00:16:43;;;;;;;11.57;10.13;;;19.30;1.00;;;;;;5036424;28;20494;-56
2022/05/19 00:19:10;;;;;;;11.87;10.30;;;19.30;1.00;;;;;;5031288;28;20179;-57
2022/05/19 00:21:37;;;;;;;13.60;10.20;;;19.20;1.00;;;;;;5030081;28;20448;-56
2022/05/19 00:24:02;;;;;;;11.87;9.90;;;19.20;1.00;;;;;;5038516;28;20792;-56
2022/05/19 00:26:28;;;;;;;12.93;9.67;;;19.20;1.00;;;;;;5029816;28;20437;-57
2022/05/19 00:28:54;;;;;;;12.97;10.07;;;19.10;1.00;;;;;;5030840;28;20252;-56
2022/05/19 00:31:20;;;;;;;11.23;10.07;;;19.10;1.00;;;;;;5031503;28;20552;-57
2022/05/19 00:33:45;;;;;;;11.90;9.90;;;19.10;1.00;;;;;;5030666;28;20213;-57
2022/05/19 00:36:14;;;;;;;12.53;9.33;;;19.00;1.00;;;;;;5030468;28;20476;-57
2022/05/19 00:38:40;;;;;;;11.10;9.17;;;19.00;1.00;;;;;;5032412;28;20281;-56
2022/05/19 00:41:06;;;;;;;13.20;9.20;;;19.00;1.00;;;;;;5034771;28;20535;-56
2022/05/19 00:43:36;;;;;;;9.87;8.80;;;19.00;1.00;;;;;;5035828;28;20198;-58
2022/05/19 00:46:14;;;;;;;10.17;9.20;;;18.90;1.00;;;;;;5036916;28;20445;-56
2022/05/19 00:48:59;;;;;;;10.83;9.73;;;18.90;1.00;;;;;;5030392;28;20445;-57
2022/05/19 00:51:52;;;;;;;9.87;8.90;;;18.90;1.00;;;;;;5030722;28;20441;-57
2022/05/19 00:54:23;;;;;;;11.20;9.37;;;18.80;1.00;;;;;;5028075;28;20473;-57
2022/05/19 00:56:54;;;;;;;12.60;9.47;;;18.70;1.00;;;;;;5028087;28;20527;-57
2022/05/19 00:59:44;;;;;;;10.60;8.83;;;18.70;1.00;;;;;;5027273;28;20445;-54
2022/05/19 01:02:12;;;;;;;10.17;9.27;;;18.70;1.00;;;;;;5029162;28;20442;-62
2022/05/19 01:04:51;;;;;;;9.83;8.60;;;18.60;1.00;;;;;;5030653;28;21134;-56
2022/05/19 01:07:23;;;;;;;11.60;9.37;;;18.60;1.00;;;;;;5031669;28;20452;-56
2022/05/19 01:09:52;;;;;;;12.90;10.40;;;18.50;1.00;;;;;;5027031;28;20440;-56
2022/05/19 01:12:18;;;;;;;10.47;8.90;;;18.50;1.00;;;;;;5030968;28;20485;-57
2022/05/19 01:14:43;;;;;;;11.63;9.23;;;18.50;1.00;;;;;;5029679;28;20452;-57
2022/05/19 01:17:09;;;;;;;11.33;10.10;;;18.40;1.00;;;;;;5028574;28;20446;-56
2022/05/19 01:19:47;;;;;;;12.43;9.77;;;18.40;1.00;;;;;;5030289;28;20191;-56
2022/05/19 01:22:27;;;;;;;12.03;9.47;;;18.40;1.00;;;;;;5028723;28;20487;-57
2022/05/19 01:25:02;;;;;;;13.43;10.90;;;18.40;1.00;;;;;;5031693;28;20447;-56
2022/05/19 01:27:27;;;;;;;10.57;9.57;;;18.40;1.00;;;;;;5036849;28;20490;-57
2022/05/19 01:29:54;;;;;;;11.13;9.17;;;18.40;1.00;;;;;;5026061;28;20434;-57
2022/05/19 01:32:27;;;;;;;11.43;9.50;;;18.40;1.00;;;;;;5024671;28;20202;-57
2022/05/19 01:34:52;;;;;;;13.93;9.47;;;18.40;1.00;;;;;;5033701;28;20444;-56
2022/05/19 01:37:18;;;;;;;11.73;9.17;;;18.30;1.00;;;;;;5029524;28;20461;-56
2022/05/19 01:39:49;;;;;;;12.53;10.67;;;18.30;1.00;;;;;;5036363;28;20198;-57
2022/05/19 01:42:46;;;;;;;12.90;9.53;;;18.30;1.00;;;;;;5033046;28;20183;-56
2022/05/19 01:45:47;;;;;;;13.23;10.40;;;18.30;1.00;;;;;;5029255;28;20463;-56
2022/05/19 01:48:28;;;;;;;13.80;10.67;;;18.30;1.00;;;;;;5026649;28;20868;-55
2022/05/19 01:50:57;;;;;;;11.40;9.67;;;18.30;1.00;;;;;;5031955;28;20800;-57
2022/05/19 01:53:32;;;;;;;13.00;10.50;;;18.20;1.00;;;;;;5032620;28;20452;-57
2022/05/19 01:56:07;;;;;;;12.63;8.83;;;18.20;1.00;;;;;;5023041;28;20442;-55
2022/05/19 01:58:47;;;;;;;11.83;9.47;;;18.40;1.00;;;;;;5028992;28;20444;-56
2022/05/19 02:01:15;;;;;;;11.60;9.80;;;18.40;1.00;;;;;;5029900;28;20449;-56
2022/05/19 02:03:48;;;;;;;10.30;8.63;;;18.50;1.00;;;;;;5030133;28;20468;-56
2022/05/19 02:06:43;;;;;;;12.23;9.13;;;18.50;1.00;;;;;;5025448;28;20588;-57
2022/05/19 02:09:33;;;;;;;12.43;9.10;;;18.50;1.00;;;;;;5027932;28;20433;-56
2022/05/19 02:12:01;;;;;;;11.57;9.80;;;18.50;1.00;;;;;;5026583;28;20508;-57
2022/05/19 02:14:37;;;;;;;13.20;9.63;;;18.40;1.00;;;;;;5027759;28;20473;-57
2022/05/19 02:17:08;;;;;;;14.17;9.00;;;18.40;1.00;;;;;;5024812;28;20476;-57
2022/05/19 02:19:38;;;;;;;15.17;9.83;;;18.40;1.00;;;;;;5033976;28;20429;-57
2022/05/19 02:22:08;;;;;;;10.83;9.53;;;18.40;1.00;;;;;;5030691;28;20802;-57
2022/05/19 02:24:37;;;;;;;11.87;8.93;;;18.30;1.00;;;;;;5032112;28;20452;-56
2022/05/19 02:27:21;;;;;;;11.00;9.17;;;18.40;1.00;;;;;;5032337;28;20446;-57
2022/05/19 02:29:47;;;;;;;11.60;9.57;;;18.30;1.00;;;;;;5034142;28;20945;-57
2022/05/19 02:32:12;;;;;;;11.97;9.47;;;18.30;1.00;;;;;;5029130;28;20430;-57
2022/05/19 02:34:38;;;;;;;11.40;10.20;;;18.30;1.00;;;;;;5032522;28;20203;-57
2022/05/19 02:37:06;;;;;;;11.20;9.20;;;18.20;1.00;;;;;;5028887;28;20187;-57
2022/05/19 02:39:31;;;;;;;10.07;9.07;;;18.20;1.00;;;;;;5026979;28;20191;-56
2022/05/19 02:41:57;;;;;;;10.93;9.83;;;18.20;1.00;;;;;;5030492;28;20477;-58
2022/05/19 02:44:22;;;;;;;12.00;9.70;;;18.20;1.00;;;;;;5033982;28;20201;-57
2022/05/19 02:46:48;;;;;;;10.50;9.00;;;18.20;1.00;;;;;;5031880;28;20727;-57
2022/05/19 02:49:13;;;;;;;9.63;8.70;;;18.20;1.00;;;;;;5029182;28;20201;-57
2022/05/19 02:51:39;;;;;;;10.13;9.13;;;18.20;1.00;;;;;;5031393;28;20621;-57
2022/05/19 02:54:04;;;;;;;14.40;9.87;;;18.20;1.00;;;;;;5029062;28;20211;-57
2022/05/19 02:56:30;;;;;;;12.63;8.80;;;18.10;1.00;;;;;;5027906;28;20270;-57
2022/05/19 02:58:55;;;;;;;12.20;9.80;;;18.10;1.00;;;;;;5028174;28;20187;-57
2022/05/19 03:01:21;;;;;;;11.17;9.00;;;18.10;1.00;;;;;;5030067;28;20202;-67
2022/05/19 03:03:48;;;;;;;13.10;9.37;;;18.10;1.00;;;;;;5036567;28;20209;-57
2022/05/19 03:06:13;;;;;;;9.83;8.83;;;18.00;1.00;;;;;;5030100;28;20190;-57
2022/05/19 03:08:39;;;;;;;11.63;9.43;;;18.00;1.00;;;;;;5027162;28;20898;-57
2022/05/19 03:11:04;;;;;;;12.33;9.80;;;18.00;1.00;;;;;;5030009;28;20309;-56
2022/05/19 03:13:30;;;;;;;12.07;10.00;;;17.90;1.00;;;;;;5028802;28;20219;-58
2022/05/19 03:15:56;;;;;;;11.33;9.43;;;17.90;1.00;;;;;;5031306;28;20178;-57
2022/05/19 03:18:21;;;;;;;13.80;10.30;;;17.90;1.00;;;;;;5029233;28;20645;-57
2022/05/19 03:20:47;;;;;;;15.93;10.57;;;17.80;1.00;;;;;;5025620;28;20287;-56
2022/05/19 03:23:13;;;;;;;14.00;9.50;;;17.80;1.00;;;;;;5032369;28;20652;-57
2022/05/19 03:25:39;;;;;;;10.67;9.53;;;17.80;1.00;;;;;;5028706;28;20190;-57
2022/05/19 03:28:05;;;;;;;12.80;9.87;;;17.80;1.00;;;;;;5028760;28;20460;-58
2022/05/19 03:30:30;;;;;;;10.47;9.33;;;17.80;1.00;;;;;;5023907;28;20433;-57
2022/05/19 03:32:56;;;;;;;10.43;9.43;;;17.80;1.00;;;;;;5032184;28;20211;-57
2022/05/19 03:35:22;;;;;;;13.70;9.73;;;17.80;1.00;;;;;;5028234;28;20219;-57
2022/05/19 03:37:48;;;;;;;13.57;9.73;;;17.80;1.00;;;;;;5033060;28;20562;-57
2022/05/19 03:40:15;;;;;;;10.53;9.43;;;17.80;1.00;;;;;;5037825;28;20182;-57
2022/05/19 03:42:41;;;;;;;12.67;10.20;;;17.80;1.00;;;;;;5034010;28;20190;-57
2022/05/19 03:45:07;;;;;;;11.70;9.70;;;17.80;1.00;;;;;;5037742;28;21356;-58
2022/05/19 03:47:32;;;;;;;16.90;10.20;;;17.80;1.00;;;;;;5029926;28;20187;-57
2022/05/19 03:49:58;;;;;;;10.33;9.10;;;17.80;1.00;;;;;;5035269;28;20444;-57
2022/05/19 03:52:24;;;;;;;11.90;9.60;;;17.80;1.00;;;;;;5032607;28;20258;-57
2022/05/19 03:54:50;;;;;;;17.20;9.20;;;17.80;1.00;;;;;;5034657;28;20549;-55
2022/05/19 03:57:21;;;;;;;11.83;9.80;;;17.80;1.00;;;;;;5030892;28;20185;-58
2022/05/19 03:59:47;;;;;;;15.53;10.33;;;17.70;1.00;;;;;;5039423;28;20171;-57
2022/05/19 04:02:13;;;;;;;11.03;9.93;;;17.70;1.00;;;;;;5030888;28;20428;-57
2022/05/19 04:04:38;;;;;;;10.30;9.20;;;17.80;1.00;;;;;;5031180;28;20438;-57
2022/05/19 04:07:04;;;;;;;11.33;10.00;;;17.80;1.00;;;;;;5032473;28;20198;-55
2022/05/19 04:09:31;;;;;;;13.47;10.30;;;17.80;1.00;;;;;;5035321;28;20581;-58
2022/05/19 04:11:57;;;;;;;12.23;9.87;;;17.80;1.00;;;;;;5032764;28;20277;-57
2022/05/19 04:14:23;;;;;;;11.70;10.50;;;17.80;1.00;;;;;;5031943;28;20878;-57
2022/05/19 04:16:53;;;;;;;12.83;10.40;;;17.80;1.00;;;;;;5029498;28;20522;-57
2022/05/19 04:19:19;;;;;;;11.33;9.87;;;17.80;1.00;;;;;;5034199;28;20583;-57
2022/05/19 04:21:45;;;;;;;10.60;9.60;;;17.80;1.00;;;;;;5029664;28;20513;-57
2022/05/19 04:24:11;;;;;;;12.30;10.27;;;17.80;1.00;;;;;;5033059;28;20187;-55
2022/05/19 04:26:37;;;;;;;11.50;10.13;;;17.80;1.00;;;;;;5031797;28;20269;-57
2022/05/19 04:29:04;;;;;;;15.87;10.30;;;17.80;1.00;;;;;;5034225;28;20962;-57
2022/05/19 04:31:29;;;;;;;10.83;9.83;;;17.90;1.00;;;;;;5032006;28;20439;-57
2022/05/19 04:33:55;;;;;;;10.50;9.50;;;17.90;1.00;;;;;;5036120;28;20461;-57
2022/05/19 04:36:20;;;;;;;13.07;10.33;;;17.90;1.00;;;;;;5030812;28;20182;-56
2022/05/19 04:38:46;;;;;;;13.80;9.93;;;18.00;1.00;;;;;;5031491;28;20185;-56
2022/05/19 04:41:11;;;;;;;12.00;10.10;;;18.10;1.00;;;;;;5032468;28;20179;-57
2022/05/19 04:43:37;;;;;;;15.40;10.17;;;18.10;1.00;;;;;;5030561;28;20445;-57
2022/05/19 04:46:03;;;;;;;15.43;10.30;;;18.20;1.00;;;;;;5032293;28;20186;-56
2022/05/19 04:48:28;;;;;;;10.23;9.23;;;18.30;1.00;;;;;;5035216;28;20194;-57
2022/05/19 04:50:56;;;;;;;12.20;9.53;;;18.40;1.00;;;;;;5030805;28;20953;-57
2022/05/19 04:53:22;;;;;;;11.80;9.77;;;18.60;1.00;;;;;;5033919;28;21043;-57
2022/05/19 04:55:48;;;;;;;10.63;9.53;;;18.80;1.00;;;;;;5029192;28;20572;-55
2022/05/19 04:58:14;;;;;;;10.53;9.43;;;18.90;1.00;;;;;;5032831;28;20437;-57
2022/05/19 05:00:39;;;;;;;13.67;9.80;;;19.00;1.00;;;;;;5030051;28;20202;-57
2022/05/19 05:03:06;;;;;;;11.97;10.00;;;19.10;1.00;;;;;;5032256;28;20187;-56
2022/05/19 05:05:32;;;;;;;14.83;9.67;;;19.30;1.00;;;;;;5028431;28;20199;-57
2022/05/19 05:07:57;;;;;;;13.90;9.60;;;19.50;1.00;;;;;;5035707;28;21803;-57
2022/05/19 05:10:23;;;;;;;14.30;8.80;;;19.70;1.00;;;;;;5030460;28;20240;-57
2022/05/19 05:12:49;;;;;;;12.77;9.40;;;20.00;1.00;;;;;;5029813;28;20234;-54
2022/05/19 05:15:15;;;;;;;13.53;9.37;;;20.20;99.90;;;;;;5029772;28;20215;-55
2022/05/19 05:17:40;;;;;;;12.60;8.77;;;20.50;99.90;;;;;;5032825;28;20245;-56
2022/05/19 05:20:08;;;;;;;14.50;9.43;;;20.60;99.90;;;;;;5029194;28;20445;-56
2022/05/19 05:22:36;;;;;;;10.30;9.30;;;20.70;99.90;;;;;;5027632;28;20182;-56
2022/05/19 05:25:09;;;;;;;11.93;9.10;;;20.80;99.90;;;;;;5027050;28;20842;-56
2022/05/19 05:27:34;;;;;;;12.10;8.53;;;20.80;99.90;;;;;;5028783;28;20452;-57
2022/05/19 05:30:00;;;;;;;10.20;8.63;;;20.90;99.90;;;;;;5029611;28;20433;-57
2022/05/19 05:32:25;;;;;;;14.67;9.63;;;20.80;99.90;;;;;;5029975;28;20236;-57
2022/05/19 05:34:51;;;;;;;12.73;9.33;;;20.80;99.90;;;;;;5030123;28;20233;-57
2022/05/19 05:37:16;;;;;;;12.27;8.90;;;20.80;99.90;;;;;;5031941;28;20191;-56
2022/05/19 05:39:42;;;;;;;10.37;8.40;;;20.70;99.90;;;;;;5029719;28;20191;-56
2022/05/19 05:42:08;;;;;;;11.60;9.10;;;20.80;99.90;;;;;;5028503;28;20666;-56
2022/05/19 05:44:34;;;;;;;12.23;9.20;;;20.90;99.90;;;;;;5029094;28;20286;-56
2022/05/19 05:46:59;;;;;;;11.30;9.53;;;21.00;99.90;;;;;;5029802;28;20532;-56
2022/05/19 05:49:25;;;;;;;12.63;9.20;;;21.10;99.90;;;;;;5029214;28;20213;-56
2022/05/19 05:51:50;;;;;;;14.80;8.30;;;21.30;99.90;;;;;;5028220;28;20958;-56
2022/05/19 05:54:16;;;;;;;13.07;8.30;;;21.40;99.90;;;;;;5029252;28;20273;-56
2022/05/19 05:56:42;;;;;;;11.80;8.87;;;21.60;99.90;;;;;;5027104;28;20611;-56
2022/05/19 05:59:07;;;;;;;8.70;7.80;;;21.80;99.90;;;;;;5030529;28;20191;-54
2022/05/19 06:01:33;;;;;;;9.40;8.40;;;21.80;99.90;;;;;;5030620;28;20183;-56
2022/05/19 06:03:58;;;;;;;13.60;8.80;;;22.00;99.90;;;;;;5026673;28;20274;-55
2022/05/19 06:06:25;;;;;;;15.50;9.13;;;22.20;99.90;;;;;;5027131;28;20186;-56
2022/05/19 06:08:51;;;;;;;10.50;8.87;;;22.40;99.90;;;;;;5027028;28;20861;-55
2022/05/19 06:11:17;;;;;;;12.97;9.20;;;22.60;99.90;;;;;;5022050;28;20533;-56
2022/05/19 06:13:42;;;;;;;16.53;8.57;;;22.80;99.90;;;;;;5026657;28;20953;-56
2022/05/19 06:16:08;;;;;;;14.43;8.47;;;22.90;99.90;;;;;;5027731;28;20644;-56
2022/05/19 06:18:34;;;;;;;11.13;8.10;;;23.10;99.90;;;;;;5027681;28;20543;-56
2022/05/19 06:20:59;;;;;;;10.17;7.50;;;23.30;99.90;;;;;;5022429;28;20241;-56
2022/05/19 06:23:25;;;;;;;9.87;8.50;;;23.30;99.90;;;;;;5034255;28;20237;-56
2022/05/19 06:25:50;;;;;;;8.97;8.03;;;23.40;99.90;;;;;;5028345;28;20193;-56
2022/05/19 06:28:16;;;;;;;11.20;8.50;;;23.50;99.90;;;;;;5029915;28;20206;-55
2022/05/19 06:30:42;;;;;;;10.13;7.57;;;23.60;99.90;;;;;;5033331;28;20262;-56
2022/05/19 06:33:09;;;;;;;21.90;8.63;;;23.60;99.90;;;;;;5029357;28;20210;-56
2022/05/19 06:35:36;;;;;;;9.90;7.93;;;23.60;99.90;;;;;;5027362;28;20442;-55
2022/05/19 06:38:02;;;;;;;12.13;7.80;;;23.70;99.90;;;;;;5025552;28;20487;-56
2022/05/19 06:40:30;;;;;;;9.77;7.70;;;23.80;99.90;;;;;;5025918;28;20425;-55
2022/05/19 06:42:56;;;;;;;23.63;8.87;;;24.00;99.90;;;;;;5028198;28;20242;-55
2022/05/19 06:45:26;;;;;;;14.20;7.73;;;24.20;99.90;;;;;;5034375;28;20451;-55
2022/05/19 06:47:53;;;;;;;13.40;8.13;;;24.40;99.90;;;;;;5028455;28;20907;-56
2022/05/19 06:50:20;;;;;;;15.50;8.07;;;24.70;99.90;;;;;;5028580;28;20433;-56
2022/05/19 06:52:53;;;;;;;8.90;7.80;;;25.10;99.90;;;;;;5027149;28;20492;-55
2022/05/19 06:55:21;;;;;;;11.37;8.00;;;25.40;99.90;;;;;;5027905;28;20442;-55
2022/05/19 06:57:47;;;;;;;12.90;7.57;;;25.70;99.90;;;;;;5025222;28;20444;-55
2022/05/19 07:00:16;;;;;;;15.30;8.30;;;25.90;99.90;;;;;;5025054;28;20488;-55
2022/05/19 07:02:44;;;;;;;11.40;6.30;;;26.10;99.90;;;;;;5030518;28;20430;-55
2022/05/19 07:05:11;;;;;;;9.23;7.60;;;26.20;99.90;;;;;;5025285;28;20437;-55
2022/05/19 07:07:37;;;;;;;9.43;7.40;;;26.30;99.90;;;;;;5025622;28;20833;-55
2022/05/19 07:10:03;;;;;;;9.90;6.90;;;26.30;99.90;;;;;;5026445;28;20429;-55
2022/05/19 07:12:29;;;;;;;10.70;7.53;;;26.20;99.90;;;;;;5029846;28;20476;-52
2022/05/19 07:14:55;;;;;;;11.90;7.20;;;26.40;99.90;;;;;;5031919;28;20473;-53
2022/05/19 07:17:21;;;;;;;8.50;6.50;;;26.60;99.90;;;;;;5032181;28;20190;-53
2022/05/19 07:22:33;;;;;;;13.90;6.97;;;27.00;99.90;;;;;;5031703;28;20219;-53
2022/05/19 07:25:06;;;;;;;12.10;6.80;;;27.40;99.90;;;;;;5032294;28;20461;-53
2022/05/19 07:27:32;;;;;;;7.70;5.90;;;27.80;99.90;;;;;;5030958;28;20421;-53
2022/05/19 07:29:59;;;;;;;11.53;5.73;;;28.20;99.90;;;;;;5030834;28;20430;-53
2022/05/19 07:32:25;;;;;;;8.10;5.70;;;28.50;99.90;;;;;;5030937;28;20445;-53
2022/05/19 07:34:50;;;;;;;7.53;4.67;;;28.80;99.90;;;;;;5031740;28;20477;-53
2022/05/19 07:37:16;;;;;;;7.23;5.03;;;28.80;99.90;;;;;;5031438;28;20215;-54
2022/05/19 07:39:42;;;;;;;6.00;5.00;;;28.70;99.90;;;;;;5032111;28;20186;-54
2022/05/19 07:42:07;;;;;;;9.50;4.90;;;28.40;99.90;;;;;;5031781;28;20183;-53
2022/05/19 07:44:33;;;;;;;5.77;4.77;;;27.90;99.90;;;;;;5029471;28;20202;-53
2022/05/19 07:46:58;;;;;;;6.60;4.93;;;27.70;99.90;;;;;;5031093;28;20221;-53
2022/05/19 07:49:25;;;;;;;6.60;5.07;;;28.10;99.90;;;;;;5032969;28;20671;-53
2022/05/19 07:51:50;;;;;;;6.30;4.50;;;28.80;99.90;;;;;;5031374;28;20195;-54
2022/05/19 07:54:24;;;;;;;5.30;4.80;;;29.40;99.90;;;;;;5031738;28;20547;-54
2022/05/19 07:56:50;;;;;;;6.77;4.27;;;29.30;99.90;;;;;;5031391;28;20268;-54
2022/05/19 07:59:16;;;;;;;6.50;4.30;;;28.80;99.90;;;;;;5031146;28;20430;-53
2022/05/19 08:01:44;;;;;;;4.90;4.00;;;28.20;99.90;;;;;;5030431;28;20429;-53
2022/05/19 08:04:10;;;;;;;5.13;4.00;;;27.90;99.90;;;;;;5031143;28;20492;-52
2022/05/19 08:06:37;;;;;;;5.23;4.40;;;28.00;99.90;;;;;;5031687;28;20430;-53
2022/05/19 08:10:20;;;;;;;9.43;4.87;;;28.10;99.90;;;;;;5032489;28;20652;-53
2022/05/19 08:11:50;;;;;;;6.40;4.63;;;28.30;99.90;;;;;;5030716;28;20538;-53
2022/05/19 08:17:00;;;;;;;4.83;4.37;;;28.90;99.90;;;;;;5030327;28;21752;-53
2022/05/19 08:19:25;;;;;;;7.47;4.53;;;29.20;99.90;;;;;;5023253;28;20429;-53
2022/05/19 08:21:51;;;;;;;8.23;4.83;;;29.60;99.90;;;;;;5026790;28;20194;-52
2022/05/19 08:24:17;;;;;;;4.07;3.70;;;29.80;99.90;;;;;;5031090;28;20195;-52
2022/05/19 08:26:43;;;;;;;4.10;3.70;;;30.00;99.90;;;;;;5030924;28;20202;-52
2022/05/19 08:29:08;;;;;;;7.93;4.07;;;29.90;99.90;;;;;;5030751;28;20425;-52
2022/05/19 08:31:35;;;;;;;7.03;4.13;;;29.90;99.90;;;;;;5030972;28;20211;-52
2022/05/19 08:34:03;;;;;;;4.00;3.60;;;30.20;99.90;;;;;;5030670;28;20581;-52
2022/05/19 08:36:29;;;;;;;4.57;3.80;;;30.20;99.90;;;;;;5027654;28;20421;-52
2022/05/19 08:38:56;;;;;;;7.10;4.60;;;30.30;99.90;;;;;;5030812;28;20418;-52
2022/05/19 08:41:31;;;;;;;8.20;4.20;;;30.50;99.90;;;;;;5030668;28;20501;-52
2022/05/19 08:43:57;;;;;;;7.13;3.77;;;30.60;99.90;;;;;;5030487;28;20421;-52
2022/05/19 08:46:32;;;;;;;7.90;5.23;;;30.60;99.90;;;;;;5030457;28;20521;-52
2022/05/19 08:49:10;;;;;;;4.07;3.77;;;30.70;99.90;;;;;;5030497;28;20920;-53
2022/05/19 08:51:47;;;;;;;4.10;3.70;;;30.30;99.90;;;;;;5031146;28;20953;-52
2022/05/19 08:54:23;;;;;;;4.20;3.90;;;30.20;99.90;;;;;;5031294;28;20519;-53
2022/05/19 08:57:22;;;;;;;4.70;3.83;;;30.10;99.90;;;;;;5025273;28;20540;-52
2022/05/19 09:00:02;;;;;;;4.37;3.97;;;30.20;99.90;;;;;;5021535;28;20440;-52
2022/05/19 09:02:38;;;;;;;4.30;3.60;;;30.60;99.90;;;;;;5030779;28;20876;-52
2022/05/19 09:05:24;;;;;;;5.07;3.93;;;30.60;99.90;;;;;;5029671;28;20924;-52
2022/05/19 09:08:02;;;;;;;8.63;3.83;;;30.70;99.90;;;;;;5028560;28;20432;-52
2022/05/19 09:10:47;;;;;;;4.10;3.60;;;31.10;99.90;;;;;;5024704;28;20475;-51
2022/05/19 09:13:37;;;;;;;7.10;3.67;;;31.40;99.90;;;;;;5022676;28;21121;-52
2022/05/19 09:16:18;;;;;;;5.10;3.80;;;31.60;99.90;;;;;;5027322;28;20430;-52
2022/05/19 09:18:50;;;;;;;5.13;3.83;;;31.10;99.90;;;;;;5029932;28;21155;-51
2022/05/19 09:21:16;;;;;;;6.30;4.00;;;30.70;99.90;;;;;;5029459;28;20428;-51
2022/05/19 09:23:42;;;;;;;5.60;4.03;;;30.60;99.90;;;;;;5030131;28;20437;-51
2022/05/19 09:26:45;;;;;;;6.00;3.90;;;30.60;99.90;;;;;;5030096;28;20213;-51
2022/05/19 09:29:15;;;;;;;5.60;4.03;;;30.80;99.90;;;;;;5028924;28;20712;-52
2022/05/19 09:32:06;;;;;;;4.17;3.80;;;30.90;99.90;;;;;;5029464;28;20411;-51
2022/05/19 09:34:35;;;;;;;5.43;3.53;;;31.30;99.90;;;;;;5024327;28;20481;-52
2022/05/19 09:37:08;;;;;;;6.67;3.10;;;31.60;99.90;;;;;;5029993;28;20440;-52
2022/05/19 09:39:42;;;;;;;7.53;3.17;;;31.50;99.90;;;;;;5029333;28;20548;-53
2022/05/19 09:42:14;;;;;;;3.63;3.33;;;31.40;99.90;;;;;;5029213;28;20418;-52
2022/05/19 09:44:50;;;;;;;5.40;3.60;;;31.20;99.90;;;;;;5029426;28;20426;-52
2022/05/19 09:47:26;;;;;;;3.63;3.33;;;30.90;99.90;;;;;;5029257;28;20445;-52
2022/05/19 09:50:06;;;;;;;7.73;3.80;;;30.80;99.90;;;;;;5022118;28;20432;-52
2022/05/19 09:52:33;;;;;;;4.30;3.40;;;31.00;99.90;;;;;;5028083;28;20657;-51
2022/05/19 09:55:07;;;;;;;4.17;3.50;;;31.20;99.90;;;;;;5029447;28;20457;-52
2022/05/19 09:57:36;;;;;;;7.17;3.30;;;31.50;99.90;;;;;;5030326;28;20428;-52
2022/05/19 10:00:11;;;;;;;4.73;3.67;;;31.70;99.90;;;;;;5029640;28;20421;-52
2022/05/19 10:02:44;;;;;;;6.70;3.67;;;31.90;99.90;;;;;;5027082;28;20935;-52
2022/05/19 10:05:33;;;;;;;6.03;3.47;;;32.00;99.90;;;;;;5029566;28;20497;-53
2022/05/19 10:08:05;;;;;;;5.30;3.30;;;32.20;99.90;;;;;;5028130;28;20434;-52
2022/05/19 10:10:35;;;;;;;7.03;3.40;;;32.30;99.90;;;;;;5028815;28;20595;-51
2022/05/19 10:13:10;;;;;;;3.70;3.20;;;32.40;99.90;;;;;;5029038;28;20819;-52
2022/05/19 10:15:42;;;;;;;5.77;3.80;;;32.60;99.90;;;;;;5029272;28;20448;-52
2022/05/19 10:18:32;;;;;;;4.80;3.70;;;32.30;99.90;;;;;;5020901;28;20425;-52
2022/05/19 10:21:18;;;;;;;7.50;3.60;;;31.90;99.90;;;;;;5028606;28;20433;-51
2022/05/19 10:24:04;;;;;;;6.53;3.80;;;31.40;99.90;;;;;;5029156;28;20402;-52
2022/05/19 10:26:42;;;;;;;9.07;3.77;;;31.10;99.90;;;;;;5028701;28;20418;-51
2022/05/19 10:32:16;;;;;;;5.17;3.70;;;30.30;99.90;;;;;;5028054;28;20443;-51
2022/05/19 10:35:20;;;;;;;6.70;3.67;;;30.30;99.90;;;;;;5028094;28;20643;-52
2022/05/19 10:38:11;;;;;;;4.50;4.10;;;30.10;99.90;;;;;;5008017;28;20794;-51
2022/05/19 10:40:50;;;;;;;4.40;3.73;;;29.80;99.90;;;;;;5027627;28;20942;-51
2022/05/19 10:43:45;;;;;;;7.43;3.80;;;29.70;99.90;;;;;;5021777;28;20424;-51
2022/05/19 10:46:14;;;;;;;4.40;4.00;;;29.50;99.90;;;;;;5028749;28;20433;-51
2022/05/19 10:48:59;;;;;;;5.07;3.73;;;29.40;99.90;;;;;;5032864;28;20935;-52
2022/05/19 10:51:48;;;;;;;4.77;4.37;;;29.50;99.90;;;;;;5032053;28;20421;-52
2022/05/19 10:54:33;;;;;;;6.30;4.40;;;29.80;99.90;;;;;;5031648;28;20457;-52
2022/05/19 10:57:11;;;;;;;4.33;3.93;;;30.10;99.90;;;;;;5032879;28;20417;-52
2022/05/19 11:00:01;;;;;;;9.00;3.83;;;30.10;99.90;;;;;;5032380;28;20433;-52
2022/05/19 11:02:45;;;;;;;7.87;4.10;;;30.30;99.90;;;;;;5033844;28;20429;-53
2022/05/19 11:05:23;;;;;;;4.97;4.43;;;30.80;99.90;;;;;;5032216;28;21250;-52
2022/05/19 11:08:17;;;;;;;5.17;4.67;;;31.30;99.90;;;;;;5030318;28;20501;-52
2022/05/19 11:10:52;;;;;;;9.23;4.03;;;32.10;99.90;;;;;;5032393;28;20425;-54
2022/05/19 11:13:29;;;;;;;4.10;3.73;;;32.50;99.90;;;;;;5035981;28;20484;-54
2022/05/19 11:16:27;;;;;;;6.93;3.60;;;32.50;99.90;;;;;;5031491;28;20438;-54
2022/05/19 11:19:18;;;;;;;6.50;3.87;;;32.20;99.90;;;;;;5032380;28;20430;-53
2022/05/19 11:21:53;;;;;;;6.93;4.50;;;32.40;99.90;;;;;;5026877;28;20417;-54
2022/05/19 11:24:27;;;;;;;9.07;4.10;;;32.70;99.90;;;;;;5032010;28;20431;-53
2022/05/19 11:27:15;;;;;;;3.93;3.63;;;33.20;99.90;;;;;;5028965;28;20441;-54
2022/05/19 11:29:49;;;;;;;5.13;3.57;;;33.90;99.90;;;;;;5030837;28;21255;-54
2022/05/19 11:32:32;;;;;;;4.63;3.80;;;34.40;99.90;;;;;;5037869;28;20488;-54
2022/05/19 11:35:15;;;;;;;7.73;3.70;;;34.90;99.90;;;;;;5025754;28;20456;-53
2022/05/19 11:38:02;;;;;;;4.70;3.83;;;35.00;99.90;;;;;;5028714;28;20417;-54
2022/05/19 11:40:52;;;;;;;5.63;3.63;;;34.90;99.90;;;;;;5031672;28;20413;-54
2022/05/19 11:43:31;;;;;;;4.70;3.80;;;34.90;99.90;;;;;;5024967;28;20537;-54
2022/05/19 11:46:09;;;;;;;4.30;3.90;;;34.70;99.90;;;;;;5031808;28;20425;-54
2022/05/19 11:55:20;;;;;;;6.67;3.73;;;34.70;99.90;;;;;;5023783;28;20643;-54
2022/05/19 11:58:10;;;;;;;3.73;3.53;;;34.60;99.90;;;;;;5030454;28;20465;-54
2022/05/19 12:00:49;;;;;;;3.90;3.50;;;34.80;99.90;;;;;;5029450;28;20425;-55
2022/05/19 12:03:36;;;;;;;3.93;3.50;;;35.00;99.90;;;;;;5028746;28;20429;-54
2022/05/19 12:06:17;;;;;;;4.40;4.00;;;35.40;99.90;;;;;;5026812;28;20426;-54
2022/05/19 12:08:57;;;;;;;8.23;3.37;;;35.30;99.90;;;;;;5029576;28;20469;-54
2022/05/19 12:11:30;;;;;;;4.63;3.40;;;35.10;99.90;;;;;;5030494;28;20473;-54
2022/05/19 12:14:11;;;;;;;6.73;4.00;;;34.90;99.90;;;;;;5030353;28;20469;-54
2022/05/19 12:17:01;;;;;;;5.97;3.63;;;34.70;99.90;;;;;;5025609;28;20513;-55
2022/05/19 12:19:40;;;;;;;5.10;3.33;;;35.10;99.90;;;;;;5030173;28;20755;-54
2022/05/19 12:22:43;;;;;;;5.90;4.13;;;35.80;99.90;;;;;;5030422;28;20429;-55
2022/05/19 12:25:09;;;;;;;5.57;3.80;;;36.20;99.90;;;;;;5027240;28;20499;-54
2022/05/19 12:27:37;;;;;;;3.77;3.47;;;36.10;99.90;;;;;;5032821;28;20426;-54
2022/05/19 12:33:29;;;;;;;5.10;3.50;;;36.00;99.90;;;;;;5021483;28;21156;-54
2022/05/19 12:36:07;;;;;;;3.73;3.33;;;36.00;99.90;;;;;;5016690;28;20799;-54
2022/05/19 12:38:34;;;;;;;7.83;4.10;;;36.30;99.90;;;;;;5030558;28;20433;-54
2022/05/19 12:41:05;;;;;;;4.80;3.50;;;36.30;99.90;;;;;;5032816;28;20429;-54
2022/05/19 12:43:41;;;;;;;3.57;3.27;;;36.40;99.90;;;;;;5030691;28;20426;-54
2022/05/19 12:46:10;;;;;;;4.30;3.70;;;36.60;99.90;;;;;;5027119;28;20437;-55
2022/05/19 12:48:35;;;;;;;5.27;3.80;;;36.20;99.90;;;;;;5029911;28;20919;-54
2022/05/19 12:51:16;;;;;;;4.37;3.97;;;35.90;99.90;;;;;;5027042;28;20430;-54
2022/05/19 12:53:51;;;;;;;3.63;3.33;;;35.30;99.90;;;;;;5029873;28;20211;-54
2022/05/19 12:56:40;;;;;;;6.83;3.70;;;34.80;99.90;;;;;;5030931;28;20460;-54
2022/05/19 12:59:07;;;;;;;5.80;3.50;;;34.40;99.90;;;;;;5029145;28;20438;-54
2022/05/19 13:01:36;;;;;;;6.47;4.33;;;34.00;99.90;;;;;;5029935;28;20444;-53
2022/05/19 13:04:28;;;;;;;5.93;4.17;;;33.70;99.90;;;;;;5029178;28;20464;-52
2022/05/19 13:07:03;;;;;;;4.60;3.83;;;33.80;99.90;;;;;;5024922;28;20430;-52
2022/05/19 13:09:31;;;;;;;4.63;3.93;;;33.70;99.90;;;;;;5027172;28;20492;-52
2022/05/19 13:12:04;;;;;;;4.13;3.33;;;33.90;99.90;;;;;;5027851;28;20473;-53
2022/05/19 13:14:34;;;;;;;6.43;3.80;;;34.20;99.90;;;;;;5029764;28;21025;-52
2022/05/19 13:17:05;;;;;;;6.50;3.53;;;34.40;99.90;;;;;;5030058;28;20414;-52
2022/05/19 13:19:35;;;;;;;5.27;3.63;;;34.40;99.90;;;;;;5030227;28;20444;-52
2022/05/19 13:22:08;;;;;;;6.27;3.43;;;34.20;99.90;;;;;;5030214;28;20479;-52
2022/05/19 13:24:36;;;;;;;8.77;3.70;;;34.20;99.90;;;;;;5025732;28;20441;-53
2022/05/19 13:32:36;;;;;;;6.70;3.90;;;34.70;99.90;;;;;;5026183;28;21017;-54